createdAt,value
2017-10-05T00:00:57.868Z,12.48
2017-10-05T00:01:57.864Z,12.44
2017-10-05T00:02:57.869Z,12.46
2017-10-05T00:03:57.870Z,12.44
2017-10-05T00:04:57.878Z,12.50
2017-10-05T00:05:57.879Z,12.51
2017-10-05T00:06:57.884Z,12.52
2017-10-05T00:07:57.884Z,12.54
2017-10-05T00:08:57.891Z,12.51
2017-10-05T00:09:57.896Z,12.48
2017-10-05T00:10:57.898Z,12.46
2017-10-05T00:11:57.900Z,12.51
2017-10-05T00:12:57.910Z,12.57
2017-10-05T00:13:57.930Z,12.59
2017-10-05T00:14:57.921Z,12.59
2017-10-05T00:15:57.915Z,12.60
2017-10-05T00:16:57.913Z,12.60
2017-10-05T00:17:57.920Z,12.54
2017-10-05T00:18:57.923Z,12.55
2017-10-05T00:19:57.926Z,12.52
2017-10-05T00:20:57.932Z,12.53
2017-10-05T00:21:57.933Z,12.53
2017-10-05T00:22:57.941Z,12.48
2017-10-05T00:23:57.940Z,12.48
2017-10-05T00:24:57.948Z,12.45
2017-10-05T00:25:57.952Z,12.39
2017-10-05T00:26:57.949Z,12.37
2017-10-05T00:27:57.965Z,12.37
2017-10-05T00:28:57.989Z,12.38
2017-10-05T00:29:57.968Z,12.38
2017-10-05T00:30:57.971Z,12.41
2017-10-05T00:31:57.968Z,12.42
2017-10-05T00:32:57.971Z,12.44
2017-10-05T00:33:57.977Z,12.45
2017-10-05T00:34:57.974Z,12.37
2017-10-05T00:35:57.980Z,12.37
2017-10-05T00:36:57.986Z,12.36
2017-10-05T00:37:57.986Z,12.38
2017-10-05T00:38:57.991Z,12.42
2017-10-05T00:39:57.998Z,12.47
2017-10-05T00:40:57.996Z,12.49
2017-10-05T00:41:58.006Z,12.53
2017-10-05T00:42:58.004Z,12.54
2017-10-05T00:43:58.010Z,12.55
2017-10-05T00:44:58.017Z,12.55
2017-10-05T00:45:58.023Z,12.54
2017-10-05T00:46:58.017Z,12.52
2017-10-05T00:47:58.025Z,12.50
2017-10-05T00:48:58.062Z,12.47
2017-10-05T00:49:58.029Z,12.47
2017-10-05T00:50:58.031Z,12.51
2017-10-05T00:51:58.034Z,12.52
2017-10-05T00:52:58.035Z,12.52
2017-10-05T00:53:58.040Z,12.53
2017-10-05T00:54:58.045Z,12.52
2017-10-05T00:55:58.047Z,12.51
2017-10-05T00:56:58.050Z,12.53
2017-10-05T00:57:58.055Z,12.54
2017-10-05T00:58:58.084Z,12.55
2017-10-05T00:59:58.057Z,12.57
2017-10-05T01:02:29.919Z,12.54
2017-10-05T01:02:31.717Z,12.53
2017-10-05T01:02:58.066Z,12.54
2017-10-05T01:05:45.952Z,12.54
2017-10-05T01:05:48.014Z,12.55
2017-10-05T01:05:58.078Z,12.56
2017-10-05T01:08:30.158Z,12.56
2017-10-05T01:08:32.356Z,12.55
2017-10-05T01:08:58.088Z,12.55
2017-10-05T01:11:45.918Z,12.55
2017-10-05T01:11:47.657Z,12.54
2017-10-05T01:11:58.105Z,12.54
2017-10-05T01:14:35.105Z,12.53
2017-10-05T01:14:37.006Z,12.50
2017-10-05T01:14:58.114Z,12.49
2017-10-05T01:17:45.889Z,12.46
2017-10-05T01:17:47.952Z,12.44
2017-10-05T01:17:58.120Z,12.42
2017-10-05T01:20:31.947Z,12.42
2017-10-05T01:20:34.072Z,12.41
2017-10-05T01:20:58.130Z,12.39
2017-10-05T01:23:46.881Z,12.39
2017-10-05T01:23:48.808Z,12.37
2017-10-05T01:23:58.144Z,12.37
2017-10-05T01:27:06.165Z,12.34
2017-10-05T01:27:07.812Z,12.31
2017-10-05T01:27:08.921Z,12.29
2017-10-05T01:29:46.995Z,12.29
2017-10-05T01:29:48.844Z,12.29
2017-10-05T01:29:58.165Z,12.27
2017-10-05T01:32:35.186Z,12.24
2017-10-05T01:32:37.081Z,12.23
2017-10-05T01:32:58.169Z,12.19
2017-10-05T01:35:36.897Z,12.18
2017-10-05T01:35:38.640Z,12.14
2017-10-05T01:35:58.181Z,12.14
2017-10-05T01:39:05.905Z,12.14
2017-10-05T01:39:07.564Z,12.09
2017-10-05T01:39:08.485Z,12.09
2017-10-05T01:41:40.894Z,12.08
2017-10-05T01:41:42.380Z,12.09
2017-10-05T01:41:58.200Z,12.08
2017-10-05T01:44:30.154Z,12.06
2017-10-05T01:44:31.918Z,12.05
2017-10-05T01:44:58.218Z,12.06
2017-10-05T01:47:47.159Z,12.05
2017-10-05T01:47:48.709Z,12.04
2017-10-05T01:47:58.242Z,12.03
2017-10-05T01:50:33.013Z,12.03
2017-10-05T01:50:34.941Z,12.05
2017-10-05T01:50:58.230Z,12.08
2017-10-05T01:53:46.031Z,12.09
2017-10-05T01:53:48.271Z,12.07
2017-10-05T01:53:58.244Z,12.06
2017-10-05T01:56:30.878Z,12.03
2017-10-05T01:56:32.415Z,12.01
2017-10-05T01:56:58.245Z,11.98
2017-10-05T01:59:46.972Z,11.97
2017-10-05T01:59:49.000Z,11.98
2017-10-05T01:59:58.292Z,11.98
2017-10-05T02:00:58.272Z,11.96
2017-10-05T02:01:58.266Z,11.94
2017-10-05T02:02:58.269Z,11.88
2017-10-05T02:03:58.275Z,11.84
2017-10-05T02:04:58.276Z,11.84
2017-10-05T02:05:58.279Z,11.82
2017-10-05T02:06:58.283Z,11.84
2017-10-05T02:07:58.286Z,11.85
2017-10-05T02:08:58.291Z,11.85
2017-10-05T02:09:58.290Z,11.78
2017-10-05T02:10:58.296Z,11.78
2017-10-05T02:11:58.299Z,11.77
2017-10-05T02:12:58.304Z,11.77
2017-10-05T02:13:58.314Z,11.78
2017-10-05T02:14:58.312Z,11.79
2017-10-05T02:15:58.331Z,11.77
2017-10-05T02:16:58.313Z,11.77
2017-10-05T02:17:58.317Z,11.78
2017-10-05T02:18:58.322Z,11.79
2017-10-05T02:19:58.322Z,11.78
2017-10-05T02:20:58.332Z,11.79
2017-10-05T02:21:58.342Z,11.78
2017-10-05T02:22:58.336Z,11.78
2017-10-05T02:23:58.339Z,11.76
2017-10-05T02:24:58.341Z,11.71
2017-10-05T02:25:58.343Z,11.70
2017-10-05T02:26:58.347Z,11.70
2017-10-05T02:27:58.352Z,11.70
2017-10-05T02:28:58.354Z,11.69
2017-10-05T02:29:58.357Z,11.69
2017-10-05T02:30:58.364Z,11.70
2017-10-05T02:31:58.364Z,11.70
2017-10-05T02:32:58.370Z,11.69
2017-10-05T02:33:58.372Z,11.68
2017-10-05T02:34:58.377Z,11.70
2017-10-05T02:35:58.380Z,11.72
2017-10-05T02:36:58.381Z,11.77
2017-10-05T02:37:58.385Z,11.78
2017-10-05T02:38:58.385Z,11.82
2017-10-05T02:39:58.392Z,11.83
2017-10-05T02:40:58.398Z,11.84
2017-10-05T02:41:58.404Z,11.87
2017-10-05T02:42:58.413Z,11.85
2017-10-05T02:43:58.405Z,11.84
2017-10-05T02:44:58.410Z,11.83
2017-10-05T02:45:58.414Z,11.83
2017-10-05T02:46:58.425Z,11.84
2017-10-05T02:47:58.426Z,11.84
2017-10-05T02:48:58.424Z,11.85
2017-10-05T02:49:58.423Z,11.86
2017-10-05T02:50:58.428Z,11.86
2017-10-05T02:51:58.433Z,11.84
2017-10-05T02:52:58.434Z,11.84
2017-10-05T02:53:58.444Z,11.85
2017-10-05T02:54:58.445Z,11.86
2017-10-05T02:55:58.446Z,11.87
2017-10-05T02:56:58.449Z,11.85
2017-10-05T02:57:58.457Z,11.84
2017-10-05T02:58:58.458Z,11.83
2017-10-05T02:59:58.466Z,11.83
2017-10-05T03:00:58.466Z,11.81
2017-10-05T03:01:58.468Z,11.77
2017-10-05T03:02:58.466Z,11.70
2017-10-05T03:03:58.469Z,11.68
2017-10-05T03:04:58.474Z,11.67
2017-10-05T03:05:58.477Z,11.63
2017-10-05T03:06:58.483Z,11.60
2017-10-05T03:07:58.486Z,11.60
2017-10-05T03:08:58.489Z,11.60
2017-10-05T03:09:58.492Z,11.61
2017-10-05T03:10:58.496Z,11.62
2017-10-05T03:11:58.503Z,11.62
2017-10-05T03:12:58.502Z,11.64
2017-10-05T03:13:58.505Z,11.63
2017-10-05T03:14:58.512Z,11.62
2017-10-05T03:15:58.514Z,11.64
2017-10-05T03:16:58.521Z,11.64
2017-10-05T03:17:58.515Z,11.65
2017-10-05T03:18:58.540Z,11.66
2017-10-05T03:19:58.676Z,11.65
2017-10-05T03:20:58.529Z,11.65
2017-10-05T03:21:58.528Z,11.66
2017-10-05T03:22:58.531Z,11.66
2017-10-05T03:23:58.537Z,11.67
2017-10-05T03:24:58.539Z,11.65
2017-10-05T03:25:58.544Z,11.65
2017-10-05T03:26:58.551Z,11.65
2017-10-05T03:27:58.550Z,11.65
2017-10-05T03:28:58.556Z,11.65
2017-10-05T03:29:58.559Z,11.64
2017-10-05T03:30:58.560Z,11.64
2017-10-05T03:31:58.563Z,11.67
2017-10-05T03:32:58.569Z,11.67
2017-10-05T03:33:58.571Z,11.66
2017-10-05T03:34:58.572Z,11.64
2017-10-05T03:35:58.591Z,11.64
2017-10-05T03:36:58.580Z,11.65
2017-10-05T03:37:58.583Z,11.65
2017-10-05T03:38:58.590Z,11.67
2017-10-05T03:39:58.590Z,11.66
2017-10-05T03:40:58.600Z,11.65
2017-10-05T03:41:58.597Z,11.65
2017-10-05T03:42:58.601Z,11.55
2017-10-05T03:43:58.607Z,11.50
2017-10-05T03:44:58.609Z,11.51
2017-10-05T03:45:58.627Z,11.51
2017-10-05T03:46:58.626Z,11.49
2017-10-05T03:47:58.633Z,11.50
2017-10-05T03:48:58.631Z,11.51
2017-10-05T03:49:58.623Z,11.53
2017-10-05T03:51:08.551Z,11.53
2017-10-05T03:52:42.950Z,11.53
2017-10-05T03:52:44.247Z,11.54
2017-10-05T03:52:58.639Z,11.54
2017-10-05T03:53:58.638Z,11.55
2017-10-05T03:54:58.641Z,11.55
2017-10-05T03:55:58.643Z,11.56
2017-10-05T03:56:58.658Z,11.52
2017-10-05T03:57:58.651Z,11.49
2017-10-05T03:58:58.653Z,11.49
2017-10-05T03:59:58.658Z,11.50
2017-10-05T04:00:58.663Z,11.50
2017-10-05T04:01:58.669Z,11.43
2017-10-05T04:02:58.675Z,11.41
2017-10-05T04:03:58.672Z,11.43
2017-10-05T04:04:58.675Z,11.42
2017-10-05T04:05:58.678Z,11.42
2017-10-05T04:06:58.685Z,11.43
2017-10-05T04:07:58.684Z,11.45
2017-10-05T04:08:58.716Z,11.45
2017-10-05T04:09:58.697Z,11.43
2017-10-05T04:10:58.696Z,11.38
2017-10-05T04:11:58.702Z,11.37
2017-10-05T04:12:58.704Z,11.37
2017-10-05T04:13:58.714Z,11.33
2017-10-05T04:14:58.714Z,11.32
2017-10-05T04:15:58.715Z,11.33
2017-10-05T04:16:58.727Z,11.34
2017-10-05T04:17:58.728Z,11.35
2017-10-05T04:18:58.740Z,11.34
2017-10-05T04:19:58.734Z,11.32
2017-10-05T04:20:58.743Z,11.31
2017-10-05T04:21:58.733Z,11.33
2017-10-05T04:22:58.736Z,11.36
2017-10-05T04:23:58.741Z,11.37
2017-10-05T04:24:58.750Z,11.38
2017-10-05T04:25:58.745Z,11.36
2017-10-05T04:26:58.751Z,11.36
2017-10-05T04:27:58.755Z,11.33
2017-10-05T04:28:58.755Z,11.33
2017-10-05T04:29:58.759Z,11.32
2017-10-05T04:30:58.761Z,11.31
2017-10-05T04:31:58.765Z,11.31
2017-10-05T04:32:58.769Z,11.31
2017-10-05T04:33:58.775Z,11.30
2017-10-05T04:34:58.785Z,11.31
2017-10-05T04:35:58.779Z,11.33
2017-10-05T04:36:58.785Z,11.33
2017-10-05T04:37:58.784Z,11.32
2017-10-05T04:38:58.789Z,11.30
2017-10-05T04:39:58.793Z,11.27
2017-10-05T04:40:58.796Z,11.20
2017-10-05T04:41:58.804Z,11.20
2017-10-05T04:42:58.804Z,11.21
2017-10-05T04:43:58.804Z,11.23
2017-10-05T04:44:58.806Z,11.21
2017-10-05T04:45:58.815Z,11.20
2017-10-05T04:46:58.814Z,11.20
2017-10-05T04:47:58.819Z,11.20
2017-10-05T04:48:58.824Z,11.22
2017-10-05T04:49:58.833Z,11.23
2017-10-05T04:50:58.829Z,11.25
2017-10-05T04:51:58.831Z,11.25
2017-10-05T04:52:58.831Z,11.24
2017-10-05T04:53:58.837Z,11.20
2017-10-05T04:54:58.847Z,11.20
2017-10-05T04:55:58.843Z,11.15
2017-10-05T04:56:58.845Z,11.16
2017-10-05T04:57:58.850Z,11.16
2017-10-05T04:58:58.862Z,11.15
2017-10-05T04:59:58.856Z,11.14
2017-10-05T05:00:58.860Z,11.15
2017-10-05T05:01:58.865Z,11.16
2017-10-05T05:02:58.864Z,11.15
2017-10-05T05:03:58.872Z,11.14
2017-10-05T05:04:58.873Z,11.15
2017-10-05T05:05:58.879Z,11.16
2017-10-05T05:06:58.883Z,11.16
2017-10-05T05:07:58.894Z,11.18
2017-10-05T05:08:58.899Z,11.19
2017-10-05T05:09:58.891Z,11.20
2017-10-05T05:10:58.894Z,11.20
2017-10-05T05:11:58.900Z,11.18
2017-10-05T05:12:58.902Z,11.18
2017-10-05T05:13:58.907Z,11.18
2017-10-05T05:14:58.909Z,11.19
2017-10-05T05:15:58.916Z,11.17
2017-10-05T05:16:58.918Z,11.16
2017-10-05T05:17:58.919Z,11.16
2017-10-05T05:18:58.926Z,11.11
2017-10-05T05:19:58.928Z,11.11
2017-10-05T05:20:58.936Z,11.13
2017-10-05T05:21:58.942Z,11.16
2017-10-05T05:22:58.948Z,11.16
2017-10-05T05:23:58.939Z,11.16
2017-10-05T05:24:58.943Z,11.15
2017-10-05T05:25:58.952Z,11.12
2017-10-05T05:26:58.948Z,11.14
2017-10-05T05:27:58.978Z,11.16
2017-10-05T05:28:58.958Z,11.15
2017-10-05T05:29:58.958Z,11.15
2017-10-05T05:30:58.966Z,11.17
2017-10-05T05:31:58.965Z,11.16
2017-10-05T05:32:58.969Z,11.18
2017-10-05T05:33:58.975Z,11.19
2017-10-05T05:34:58.981Z,11.21
2017-10-05T05:35:58.979Z,11.19
2017-10-05T05:36:58.986Z,11.17
2017-10-05T05:37:58.983Z,11.19
2017-10-05T05:38:58.987Z,11.19
2017-10-05T05:39:58.992Z,11.19
2017-10-05T05:40:59.007Z,11.22
2017-10-05T05:41:58.998Z,11.20
2017-10-05T05:42:59.001Z,11.18
2017-10-05T05:43:59.004Z,11.16
2017-10-05T05:44:59.004Z,11.15
2017-10-05T05:45:59.015Z,11.13
2017-10-05T05:46:59.012Z,11.13
2017-10-05T05:47:59.023Z,11.15
2017-10-05T05:48:59.020Z,11.15
2017-10-05T05:49:59.027Z,11.12
2017-10-05T05:50:59.035Z,11.11
2017-10-05T05:51:59.042Z,11.08
2017-10-05T05:52:59.032Z,11.11
2017-10-05T05:53:59.043Z,11.13
2017-10-05T05:54:59.040Z,11.13
2017-10-05T05:55:59.050Z,11.14
2017-10-05T05:56:59.056Z,11.13
2017-10-05T05:57:59.063Z,11.13
2017-10-05T05:58:59.078Z,11.14
2017-10-05T05:59:59.086Z,11.14
2017-10-05T06:00:59.099Z,11.14
2017-10-05T06:01:59.097Z,11.15
2017-10-05T06:02:59.105Z,11.17
2017-10-05T06:03:59.113Z,11.19
2017-10-05T06:04:59.074Z,11.20
2017-10-05T06:05:59.079Z,11.19
2017-10-05T06:06:59.082Z,11.20
2017-10-05T06:07:59.093Z,11.20
2017-10-05T06:08:59.101Z,11.19
2017-10-05T06:09:59.090Z,11.18
2017-10-05T06:10:59.092Z,11.19
2017-10-05T06:11:59.096Z,11.20
2017-10-05T06:12:59.101Z,11.17
2017-10-05T06:13:59.103Z,11.18
2017-10-05T06:14:59.185Z,11.18
2017-10-05T07:29:21.712Z,11.54
2017-10-05T07:29:58.586Z,11.54
2017-10-05T07:30:58.587Z,11.56
2017-10-05T07:31:59.370Z,11.58
2017-10-05T07:32:59.397Z,11.61
2017-10-05T07:33:59.376Z,11.64
2017-10-05T07:34:59.380Z,11.65
2017-10-05T07:35:59.386Z,11.65
2017-10-05T07:36:59.395Z,11.66
2017-10-05T07:37:59.394Z,11.66
2017-10-05T07:38:59.395Z,11.66
2017-10-05T07:39:59.397Z,11.66
2017-10-05T07:40:59.403Z,11.68
2017-10-05T07:41:59.409Z,11.69
2017-10-05T07:42:59.415Z,11.71
2017-10-05T07:43:59.417Z,11.71
2017-10-05T07:44:59.423Z,11.71
2017-10-05T07:45:59.423Z,11.73
2017-10-05T07:46:59.423Z,11.71
2017-10-05T07:47:59.431Z,11.70
2017-10-05T07:48:59.431Z,11.72
2017-10-05T07:49:59.436Z,11.71
2017-10-05T07:50:59.443Z,11.74
2017-10-05T07:51:59.444Z,11.76
2017-10-05T07:52:59.452Z,11.78
2017-10-05T07:53:59.458Z,11.81
2017-10-05T07:54:59.464Z,11.83
2017-10-05T07:55:59.472Z,11.84
2017-10-05T07:56:59.490Z,11.86
2017-10-05T07:57:59.466Z,11.84
2017-10-05T07:58:59.468Z,11.86
2017-10-05T07:59:59.497Z,11.85
2017-10-05T08:00:59.468Z,11.86
2017-10-05T08:01:59.473Z,11.89
2017-10-05T08:02:59.480Z,11.88
2017-10-05T08:03:59.610Z,11.88
2017-10-05T08:04:59.491Z,11.87
2017-10-05T08:05:59.496Z,11.86
2017-10-05T08:06:59.494Z,11.84
2017-10-05T08:07:59.494Z,11.84
2017-10-05T08:08:59.506Z,11.82
2017-10-05T08:09:59.788Z,11.85
2017-10-05T08:10:59.509Z,11.85
2017-10-05T08:11:59.506Z,11.85
2017-10-05T08:12:59.514Z,11.87
2017-10-05T08:13:59.511Z,11.87
2017-10-05T08:14:59.517Z,11.90
2017-10-05T08:15:59.524Z,11.90
2017-10-05T08:16:59.534Z,11.91
2017-10-05T08:17:59.527Z,11.93
2017-10-05T08:18:59.533Z,11.92
2017-10-05T08:19:59.537Z,11.94
2017-10-05T08:20:59.542Z,11.96
2017-10-05T08:21:59.538Z,11.95
2017-10-05T08:22:59.546Z,11.94
2017-10-05T08:23:59.557Z,11.96
2017-10-05T08:24:59.562Z,11.97
2017-10-05T08:25:59.554Z,11.98
2017-10-05T08:26:59.576Z,11.99
2017-10-05T08:27:59.562Z,11.96
2017-10-05T08:28:59.567Z,11.96
2017-10-05T08:29:59.568Z,11.97
2017-10-05T08:30:59.580Z,11.99
2017-10-05T08:31:59.577Z,12.01
2017-10-05T08:32:59.576Z,12.00
2017-10-05T08:33:59.580Z,12.03
2017-10-05T08:34:59.581Z,12.04
2017-10-05T08:35:59.587Z,12.08
2017-10-05T08:36:59.589Z,12.08
2017-10-05T08:37:59.591Z,12.06
2017-10-05T08:38:59.600Z,12.06
2017-10-05T08:39:59.601Z,12.07
2017-10-05T08:40:59.602Z,12.06
2017-10-05T08:41:59.607Z,12.06
2017-10-05T08:42:59.608Z,12.05
2017-10-05T08:43:59.616Z,12.06
2017-10-05T08:44:59.619Z,12.04
2017-10-05T08:45:59.754Z,12.03
2017-10-05T08:46:59.624Z,12.03
2017-10-05T08:47:59.624Z,12.03
2017-10-05T08:48:59.631Z,12.02
2017-10-05T08:49:59.636Z,12.04
2017-10-05T08:50:59.644Z,12.04
2017-10-05T08:51:59.644Z,12.06
2017-10-05T08:52:59.645Z,12.05
2017-10-05T08:53:59.656Z,12.05
2017-10-05T08:54:59.658Z,12.09
2017-10-05T08:55:59.652Z,12.10
2017-10-05T08:56:59.655Z,12.13
2017-10-05T08:57:59.660Z,12.16
2017-10-05T08:58:59.665Z,12.17
2017-10-05T08:59:59.670Z,12.13
2017-10-05T09:00:59.703Z,12.12
2017-10-05T09:01:59.678Z,12.09
2017-10-05T09:02:59.677Z,12.08
2017-10-05T09:03:59.683Z,12.09
2017-10-05T09:04:59.684Z,12.08
2017-10-05T09:05:59.684Z,12.09
2017-10-05T09:06:59.692Z,12.06
2017-10-05T09:07:59.694Z,12.04
2017-10-05T09:08:59.697Z,12.06
2017-10-05T09:09:59.696Z,12.11
2017-10-05T09:10:59.701Z,12.12
2017-10-05T09:11:59.707Z,12.13
2017-10-05T09:12:59.715Z,12.15
2017-10-05T09:13:59.713Z,12.15
2017-10-05T09:14:59.716Z,12.19
2017-10-05T09:15:59.721Z,12.20
2017-10-05T09:16:59.721Z,12.26
2017-10-05T09:18:00.039Z,12.28
2017-10-05T09:18:59.731Z,12.31
2017-10-05T09:19:59.734Z,12.32
2017-10-05T09:20:59.739Z,12.37
2017-10-05T09:21:59.738Z,12.37
2017-10-05T09:22:59.746Z,12.38
2017-10-05T09:23:59.747Z,12.37
2017-10-05T09:24:59.756Z,12.36
2017-10-05T09:25:59.752Z,12.37
2017-10-05T09:26:59.754Z,12.35
2017-10-05T09:27:59.764Z,12.31
2017-10-05T09:28:59.767Z,12.30
2017-10-05T09:29:59.769Z,12.30
2017-10-05T09:31:00.088Z,12.29
2017-10-05T09:31:59.774Z,12.30
2017-10-05T09:32:59.777Z,12.29
2017-10-05T09:33:59.785Z,12.33
2017-10-05T09:34:59.783Z,12.38
2017-10-05T09:35:59.785Z,12.40
2017-10-05T09:36:59.820Z,12.44
2017-10-05T09:37:59.790Z,12.47
2017-10-05T09:38:59.795Z,12.50
2017-10-05T09:39:59.870Z,12.54
2017-10-05T09:40:59.804Z,12.56
2017-10-05T09:41:59.824Z,12.55
2017-10-05T09:42:59.809Z,12.57
2017-10-05T09:43:59.812Z,12.57
2017-10-05T09:44:59.815Z,12.59
2017-10-05T09:45:59.823Z,12.56
2017-10-05T09:46:59.823Z,12.54
2017-10-05T09:47:59.830Z,12.55
2017-10-05T09:48:59.831Z,12.53
2017-10-05T09:49:59.835Z,12.54
2017-10-05T09:50:59.837Z,12.58
2017-10-05T09:51:59.838Z,12.58
2017-10-05T09:52:59.841Z,12.61
2017-10-05T09:53:59.847Z,12.66
2017-10-05T09:54:59.848Z,12.70
2017-10-05T09:55:59.859Z,12.75
2017-10-05T09:56:59.988Z,12.79
2017-10-05T09:57:59.860Z,12.83
2017-10-05T09:58:59.860Z,12.86
2017-10-05T09:59:59.865Z,12.92
2017-10-05T10:00:59.872Z,12.93
2017-10-05T10:01:59.868Z,12.97
2017-10-05T10:02:59.873Z,12.98
2017-10-05T10:03:59.876Z,12.99
2017-10-05T10:04:59.881Z,13.01
2017-10-05T10:05:59.884Z,13.07
2017-10-05T10:06:59.885Z,13.11
2017-10-05T10:07:59.889Z,13.12
2017-10-05T10:08:59.908Z,13.16
2017-10-05T10:09:59.895Z,13.18
2017-10-05T10:10:59.902Z,13.17
2017-10-05T10:11:59.904Z,13.19
2017-10-05T10:12:59.910Z,13.19
2017-10-05T10:13:59.908Z,13.20
2017-10-05T10:14:59.911Z,13.16
2017-10-05T10:15:59.918Z,13.14
2017-10-05T10:16:59.919Z,13.12
2017-10-05T10:17:59.923Z,13.12
2017-10-05T10:18:59.922Z,13.13
2017-10-05T10:19:59.929Z,13.16
2017-10-05T10:20:59.937Z,13.15
2017-10-05T10:21:59.932Z,13.11
2017-10-05T10:22:59.939Z,13.10
2017-10-05T10:23:59.946Z,13.08
2017-10-05T10:24:59.946Z,13.06
2017-10-05T10:25:59.955Z,13.05
2017-10-05T10:26:59.963Z,13.03
2017-10-05T10:27:59.952Z,13.01
2017-10-05T10:28:59.955Z,13.01
2017-10-05T10:29:59.963Z,13.03
2017-10-05T10:30:59.970Z,13.07
2017-10-05T10:31:59.967Z,13.10
2017-10-05T10:32:59.969Z,13.14
2017-10-05T10:33:59.980Z,13.13
2017-10-05T10:34:59.978Z,13.11
2017-10-05T10:35:59.981Z,13.07
2017-10-05T10:36:59.984Z,13.06
2017-10-05T10:37:59.988Z,13.06
2017-10-05T10:38:59.991Z,13.02
2017-10-05T10:40:00.001Z,13.00
2017-10-05T10:41:00.002Z,13.03
2017-10-05T10:42:00.000Z,13.05
2017-10-05T10:43:00.005Z,13.04
2017-10-05T10:44:00.012Z,13.03
2017-10-05T10:45:00.012Z,13.03
2017-10-05T10:46:00.021Z,13.05
2017-10-05T10:47:00.019Z,13.09
2017-10-05T10:48:00.021Z,13.13
2017-10-05T10:49:00.029Z,13.18
2017-10-05T10:50:00.029Z,13.21
2017-10-05T10:51:00.029Z,13.23
2017-10-05T10:52:00.038Z,13.25
2017-10-05T10:53:00.038Z,13.31
2017-10-05T10:54:00.040Z,13.36
2017-10-05T10:55:00.046Z,13.40
2017-10-05T10:56:00.053Z,13.42
2017-10-05T10:57:00.060Z,13.47
2017-10-05T10:58:00.056Z,13.51
2017-10-05T10:59:00.059Z,13.52
2017-10-05T11:00:00.061Z,13.54
2017-10-05T11:01:00.072Z,13.56
2017-10-05T11:02:00.070Z,13.59
2017-10-05T11:03:00.071Z,13.64
2017-10-05T11:04:00.075Z,13.64
2017-10-05T11:05:00.079Z,13.68
2017-10-05T11:06:00.377Z,13.72
2017-10-05T11:07:00.086Z,13.77
2017-10-05T11:08:00.088Z,13.80
2017-10-05T11:09:00.094Z,13.81
2017-10-05T11:10:00.115Z,13.84
2017-10-05T11:11:00.101Z,13.84
2017-10-05T11:12:00.105Z,13.86
2017-10-05T11:13:00.109Z,13.92
2017-10-05T11:14:00.110Z,14.00
2017-10-05T11:15:00.119Z,14.02
2017-10-05T11:16:00.125Z,14.04
2017-10-05T11:17:00.120Z,14.05
2017-10-05T11:18:00.121Z,14.07
2017-10-05T11:19:00.133Z,14.10
2017-10-05T11:20:00.139Z,14.10
2017-10-05T11:21:00.133Z,14.14
2017-10-05T11:22:00.139Z,14.18
2017-10-05T11:23:00.140Z,14.13
2017-10-05T11:24:00.149Z,14.13
2017-10-05T11:25:00.146Z,14.14
2017-10-05T11:26:00.151Z,14.16
2017-10-05T11:27:00.157Z,14.15
2017-10-05T11:28:00.188Z,14.14
2017-10-05T11:29:00.207Z,14.16
2017-10-05T11:30:00.165Z,14.16
2017-10-05T11:31:00.167Z,14.13
2017-10-05T11:32:00.169Z,14.11
2017-10-05T11:33:00.181Z,14.11
2017-10-05T11:34:00.182Z,14.13
2017-10-05T11:35:00.183Z,14.14
2017-10-05T11:36:00.184Z,14.20
2017-10-05T11:37:00.189Z,14.26
2017-10-05T11:38:00.190Z,14.26
2017-10-05T11:39:00.195Z,14.31
2017-10-05T11:40:00.196Z,14.32
2017-10-05T11:41:00.201Z,14.37
2017-10-05T11:42:00.207Z,14.39
2017-10-05T11:43:00.216Z,14.39
2017-10-05T11:44:00.210Z,14.45
2017-10-05T11:45:00.214Z,14.46
2017-10-05T11:46:00.218Z,14.46
2017-10-05T11:47:00.220Z,14.50
2017-10-05T11:48:00.319Z,14.53
2017-10-05T11:49:00.234Z,14.52
2017-10-05T11:50:00.236Z,14.48
2017-10-05T11:51:00.246Z,14.52
2017-10-05T11:52:00.237Z,14.53
2017-10-05T11:53:00.243Z,14.49
2017-10-05T11:54:00.249Z,14.48
2017-10-05T11:55:00.309Z,14.50
2017-10-05T11:56:00.284Z,14.50
2017-10-05T11:57:00.257Z,14.51
2017-10-05T11:58:00.332Z,14.55
2017-10-05T11:59:00.270Z,14.59
2017-10-05T12:00:00.262Z,14.59
2017-10-05T12:01:00.275Z,14.60
2017-10-05T12:02:00.285Z,14.64
2017-10-05T12:03:00.306Z,14.69
2017-10-05T12:04:00.278Z,14.72
2017-10-05T12:05:00.280Z,14.76
2017-10-05T12:06:00.283Z,14.78
2017-10-05T12:07:00.288Z,14.78
2017-10-05T12:08:00.289Z,14.84
2017-10-05T12:09:00.291Z,14.87
2017-10-05T12:10:00.296Z,14.90
2017-10-05T12:11:00.297Z,14.94
2017-10-05T12:12:00.299Z,14.98
2017-10-05T12:13:00.306Z,15.03
2017-10-05T12:14:00.312Z,15.06
2017-10-05T12:15:00.313Z,15.07
2017-10-05T12:16:00.319Z,15.05
2017-10-05T12:17:00.322Z,15.05
2017-10-05T12:18:00.322Z,15.10
2017-10-05T12:19:00.326Z,15.13
2017-10-05T12:20:00.337Z,15.21
2017-10-05T12:21:00.343Z,15.24
2017-10-05T12:22:00.337Z,15.28
2017-10-05T12:23:00.349Z,15.20
2017-10-05T12:24:00.341Z,15.14
2017-10-05T12:25:00.345Z,15.08
2017-10-05T12:26:00.347Z,15.08
2017-10-05T12:27:00.356Z,15.07
2017-10-05T12:28:00.368Z,15.06
2017-10-05T12:29:00.367Z,15.06
2017-10-05T12:30:00.377Z,15.08
2017-10-05T12:31:00.384Z,15.09
2017-10-05T12:32:00.368Z,15.10
2017-10-05T12:33:00.374Z,15.11
2017-10-05T12:34:00.375Z,15.10
2017-10-05T12:35:00.378Z,15.04
2017-10-05T12:36:00.385Z,15.02
2017-10-05T12:37:00.389Z,15.04
2017-10-05T12:38:00.387Z,15.02
2017-10-05T12:39:00.405Z,14.99
2017-10-05T12:40:00.399Z,14.94
2017-10-05T12:41:00.396Z,14.90
2017-10-05T12:42:00.401Z,14.85
2017-10-05T12:43:00.405Z,14.82
2017-10-05T12:44:00.410Z,14.72
2017-10-05T12:45:00.414Z,14.64
2017-10-05T12:46:00.420Z,14.57
2017-10-05T12:47:00.418Z,14.51
2017-10-05T12:48:00.422Z,14.47
2017-10-05T12:49:00.436Z,14.40
2017-10-05T12:50:00.428Z,14.34
2017-10-05T12:51:00.430Z,14.29
2017-10-05T12:52:00.433Z,14.24
2017-10-05T12:53:00.440Z,14.20
2017-10-05T12:54:00.448Z,14.14
2017-10-05T12:55:00.447Z,14.13
2017-10-05T12:56:00.451Z,14.11
2017-10-05T12:57:00.452Z,14.07
2017-10-05T12:58:00.459Z,14.02
2017-10-05T12:59:00.467Z,13.95
2017-10-05T13:00:00.473Z,13.88
2017-10-05T13:01:00.479Z,13.86
2017-10-05T13:02:00.468Z,13.76
2017-10-05T13:03:00.472Z,13.72
2017-10-05T13:04:00.472Z,13.71
2017-10-05T13:05:00.478Z,13.72
2017-10-05T13:06:00.489Z,13.72
2017-10-05T13:07:00.485Z,13.71
2017-10-05T13:08:00.486Z,13.71
2017-10-05T13:09:00.493Z,13.72
2017-10-05T13:10:00.497Z,13.71
2017-10-05T13:11:00.501Z,13.73
2017-10-05T13:12:00.504Z,13.76
2017-10-05T13:13:00.506Z,13.78
2017-10-05T13:14:00.510Z,13.75
2017-10-05T13:15:00.512Z,13.73
2017-10-05T13:16:00.517Z,13.73
2017-10-05T13:17:00.519Z,13.76
2017-10-05T13:18:00.521Z,13.80
2017-10-05T13:19:00.526Z,13.83
2017-10-05T13:20:00.527Z,13.87
2017-10-05T13:21:00.529Z,13.92
2017-10-05T13:22:00.532Z,13.94
2017-10-05T13:23:00.539Z,13.98
2017-10-05T13:24:00.543Z,13.98
2017-10-05T13:25:00.546Z,13.97
2017-10-05T13:26:00.547Z,13.94
2017-10-05T13:27:00.554Z,13.93
2017-10-05T13:28:00.559Z,13.89
2017-10-05T13:29:00.564Z,13.86
2017-10-05T13:30:00.566Z,13.79
2017-10-05T13:31:00.579Z,13.82
2017-10-05T13:32:00.585Z,13.84
2017-10-05T13:33:00.572Z,13.84
2017-10-05T13:34:00.578Z,13.83
2017-10-05T13:35:00.577Z,13.87
2017-10-05T13:36:00.583Z,13.98
2017-10-05T13:37:00.585Z,14.04
2017-10-05T13:38:00.589Z,14.08
2017-10-05T13:39:00.645Z,14.17
2017-10-05T13:40:00.595Z,14.26
2017-10-05T13:41:00.597Z,14.31
2017-10-05T13:42:00.606Z,14.36
2017-10-05T13:43:00.606Z,14.42
2017-10-05T13:44:00.608Z,14.50
2017-10-05T13:45:00.610Z,14.50
2017-10-05T13:46:00.618Z,14.51
2017-10-05T13:47:00.617Z,14.51
2017-10-05T13:48:00.623Z,14.55
2017-10-05T13:49:00.625Z,14.54
2017-10-05T13:50:00.626Z,14.64
2017-10-05T13:51:00.634Z,14.64
2017-10-05T13:52:00.635Z,14.68
2017-10-05T13:53:00.641Z,14.65
2017-10-05T13:54:00.642Z,14.65
2017-10-05T13:55:00.644Z,14.69
2017-10-05T13:56:00.645Z,14.77
2017-10-05T13:57:00.654Z,14.80
2017-10-05T13:58:00.657Z,14.74
2017-10-05T13:59:00.661Z,14.76
2017-10-05T14:00:00.667Z,14.78
2017-10-05T14:01:00.676Z,14.83
2017-10-05T14:02:00.665Z,14.86
2017-10-05T14:03:00.672Z,14.84
2017-10-05T14:04:00.676Z,14.85
2017-10-05T14:05:00.681Z,14.85